sensor_id;sensor_type;location;lat;lon;timestamp;temperature;humidity
38359;DHT22;42072;48.044;14.416;2023-05-07T00:00:04;12.70;99.90
38359;DHT22;42072;48.044;14.416;2023-05-07T00:02:35;12.70;99.90
38359;DHT22;42072;48.044;14.416;2023-05-07T00:05:03;12.70;99.90
38359;DHT22;42072;48.044;14.416;2023-05-07T00:07:31;12.70;99.90
38359;DHT22;42072;48.044;14.416;2023-05-07T00:09:58;12.70;99.90
38359;DHT22;42072;48.044;14.416;2023-05-07T00:12:25;12.70;99.90
38359;DHT22;42072;48.044;14.416;2023-05-07T00:14:52;12.60;99.90
38359;DHT22;42072;48.044;14.416;2023-05-07T00:17:19;12.60;99.90
38359;DHT22;42072;48.044;14.416;2023-05-07T00:19:46;12.60;99.90
38359;DHT22;42072;48.044;14.416;2023-05-07T00:22:14;12.60;99.90
38359;DHT22;42072;48.044;14.416;2023-05-07T00:24:42;12.60;99.90
38359;DHT22;42072;48.044;14.416;2023-05-07T00:27:10;12.70;99.90
38359;DHT22;42072;48.044;14.416;2023-05-07T00:29:37;12.70;99.90
38359;DHT22;42072;48.044;14.416;2023-05-07T00:32:06;12.70;99.90
38359;DHT22;42072;48.044;14.416;2023-05-07T00:34:33;12.70;99.90
38359;DHT22;42072;48.044;14.416;2023-05-07T00:37:01;12.80;99.90
38359;DHT22;42072;48.044;14.416;2023-05-07T00:39:31;12.80;99.90
38359;DHT22;42072;48.044;14.416;2023-05-07T00:41:59;12.80;99.90
38359;DHT22;42072;48.044;14.416;2023-05-07T00:44:27;12.80;99.90
38359;DHT22;42072;48.044;14.416;2023-05-07T00:46:57;12.80;99.90
38359;DHT22;42072;48.044;14.416;2023-05-07T00:49:43;12.80;99.90
38359;DHT22;42072;48.044;14.416;2023-05-07T00:52:14;12.70;99.90
38359;DHT22;42072;48.044;14.416;2023-05-07T00:54:42;12.60;99.90
38359;DHT22;42072;48.044;14.416;2023-05-07T00:57:10;12.50;99.90
38359;DHT22;42072;48.044;14.416;2023-05-07T00:59:41;12.50;99.90
38359;DHT22;42072;48.044;14.416;2023-05-07T01:02:08;12.40;99.90
38359;DHT22;42072;48.044;14.416;2023-05-07T01:04:36;12.40;99.90
38359;DHT22;42072;48.044;14.416;2023-05-07T01:07:05;12.40;99.90
38359;DHT22;42072;48.044;14.416;2023-05-07T01:09:33;12.30;99.90
38359;DHT22;42072;48.044;14.416;2023-05-07T01:12:03;12.20;99.90
38359;DHT22;42072;48.044;14.416;2023-05-07T01:14:31;12.20;99.90
38359;DHT22;42072;48.044;14.416;2023-05-07T01:17:00;12.10;99.90
38359;DHT22;42072;48.044;14.416;2023-05-07T01:19:29;12.00;99.90
38359;DHT22;42072;48.044;14.416;2023-05-07T01:22:01;11.90;99.90
38359;DHT22;42072;48.044;14.416;2023-05-07T01:24:31;11.90;99.90
38359;DHT22;42072;48.044;14.416;2023-05-07T01:26:58;11.90;99.90
38359;DHT22;42072;48.044;14.416;2023-05-07T01:29:25;11.90;99.90
38359;DHT22;42072;48.044;14.416;2023-05-07T01:31:53;11.80;99.90
38359;DHT22;42072;48.044;14.416;2023-05-07T01:34:21;11.80;99.90
38359;DHT22;42072;48.044;14.416;2023-05-07T01:36:49;11.80;99.90
38359;DHT22;42072;48.044;14.416;2023-05-07T01:39:17;11.70;99.90
38359;DHT22;42072;48.044;14.416;2023-05-07T01:41:45;11.70;99.90
38359;DHT22;42072;48.044;14.416;2023-05-07T01:44:13;11.70;99.90
38359;DHT22;42072;48.044;14.416;2023-05-07T01:46:41;11.70;99.90
38359;DHT22;42072;48.044;14.416;2023-05-07T01:49:09;11.80;99.90
38359;DHT22;42072;48.044;14.416;2023-05-07T01:51:36;11.80;99.90
38359;DHT22;42072;48.044;14.416;2023-05-07T01:54:03;11.80;99.90
38359;DHT22;42072;48.044;14.416;2023-05-07T01:56:31;11.80;99.90
38359;DHT22;42072;48.044;14.416;2023-05-07T01:58:58;11.80;99.90
38359;DHT22;42072;48.044;14.416;2023-05-07T02:01:25;11.80;99.90
38359;DHT22;42072;48.044;14.416;2023-05-07T02:03:53;11.80;99.90
38359;DHT22;42072;48.044;14.416;2023-05-07T02:06:21;11.80;99.90
38359;DHT22;42072;48.044;14.416;2023-05-07T02:08:48;11.80;99.90
38359;DHT22;42072;48.044;14.416;2023-05-07T02:11:15;11.80;99.90
38359;DHT22;42072;48.044;14.416;2023-05-07T02:13:42;11.90;99.90
38359;DHT22;42072;48.044;14.416;2023-05-07T02:16:09;11.90;99.90
38359;DHT22;42072;48.044;14.416;2023-05-07T02:18:37;12.00;99.90
38359;DHT22;42072;48.044;14.416;2023-05-07T02:21:05;12.00;99.90
38359;DHT22;42072;48.044;14.416;2023-05-07T02:23:32;12.00;99.90
38359;DHT22;42072;48.044;14.416;2023-05-07T02:25:59;12.00;99.90
38359;DHT22;42072;48.044;14.416;2023-05-07T02:28:26;12.00;99.90
38359;DHT22;42072;48.044;14.416;2023-05-07T02:30:53;12.10;99.90
38359;DHT22;42072;48.044;14.416;2023-05-07T02:33:21;12.10;99.90
38359;DHT22;42072;48.044;14.416;2023-05-07T02:35:48;12.10;99.90
38359;DHT22;42072;48.044;14.416;2023-05-07T02:38:15;12.10;99.90
38359;DHT22;42072;48.044;14.416;2023-05-07T02:40:43;12.10;99.90
38359;DHT22;42072;48.044;14.416;2023-05-07T02:43:10;12.20;99.90
38359;DHT22;42072;48.044;14.416;2023-05-07T02:45:37;12.20;99.90
38359;DHT22;42072;48.044;14.416;2023-05-07T02:48:04;12.30;99.90
38359;DHT22;42072;48.044;14.416;2023-05-07T02:50:33;12.30;99.90
38359;DHT22;42072;48.044;14.416;2023-05-07T02:53:00;12.30;99.90
38359;DHT22;42072;48.044;14.416;2023-05-07T02:55:27;12.20;99.90
38359;DHT22;42072;48.044;14.416;2023-05-07T02:57:54;12.20;99.90
38359;DHT22;42072;48.044;14.416;2023-05-07T03:00:22;12.20;99.90
38359;DHT22;42072;48.044;14.416;2023-05-07T03:02:49;12.20;99.90
38359;DHT22;42072;48.044;14.416;2023-05-07T03:05:16;12.10;99.90
38359;DHT22;42072;48.044;14.416;2023-05-07T03:07:43;12.00;99.90
38359;DHT22;42072;48.044;14.416;2023-05-07T03:10:12;12.00;99.90
38359;DHT22;42072;48.044;14.416;2023-05-07T03:12:40;11.90;99.90
38359;DHT22;42072;48.044;14.416;2023-05-07T03:15:08;11.90;99.90
38359;DHT22;42072;48.044;14.416;2023-05-07T03:17:35;11.90;99.90
38359;DHT22;42072;48.044;14.416;2023-05-07T03:20:03;11.90;99.90
38359;DHT22;42072;48.044;14.416;2023-05-07T03:22:30;11.90;99.90
38359;DHT22;42072;48.044;14.416;2023-05-07T03:24:57;11.90;99.90
38359;DHT22;42072;48.044;14.416;2023-05-07T03:27:25;12.00;99.90
38359;DHT22;42072;48.044;14.416;2023-05-07T03:29:52;12.00;99.90
38359;DHT22;42072;48.044;14.416;2023-05-07T03:32:19;12.00;99.90
38359;DHT22;42072;48.044;14.416;2023-05-07T03:34:46;12.00;99.90
38359;DHT22;42072;48.044;14.416;2023-05-07T03:37:14;12.00;99.90
38359;DHT22;42072;48.044;14.416;2023-05-07T03:39:41;12.00;99.90
38359;DHT22;42072;48.044;14.416;2023-05-07T03:42:08;12.00;99.90
38359;DHT22;42072;48.044;14.416;2023-05-07T03:44:35;11.90;99.90
38359;DHT22;42072;48.044;14.416;2023-05-07T03:47:05;12.00;99.90
38359;DHT22;42072;48.044;14.416;2023-05-07T03:49:32;11.90;99.90
38359;DHT22;42072;48.044;14.416;2023-05-07T03:52:00;11.90;99.90
38359;DHT22;42072;48.044;14.416;2023-05-07T03:54:27;11.90;99.90
38359;DHT22;42072;48.044;14.416;2023-05-07T03:56:54;12.00;99.90
38359;DHT22;42072;48.044;14.416;2023-05-07T03:59:22;12.00;99.90
38359;DHT22;42072;48.044;14.416;2023-05-07T04:01:49;12.00;99.90
38359;DHT22;42072;48.044;14.416;2023-05-07T04:04:17;12.10;99.90
38359;DHT22;42072;48.044;14.416;2023-05-07T04:06:44;12.00;99.90
38359;DHT22;42072;48.044;14.416;2023-05-07T04:09:11;12.10;99.90
38359;DHT22;42072;48.044;14.416;2023-05-07T04:11:38;12.10;99.90
38359;DHT22;42072;48.044;14.416;2023-05-07T04:14:07;12.20;99.90
38359;DHT22;42072;48.044;14.416;2023-05-07T04:16:34;12.20;99.90
38359;DHT22;42072;48.044;14.416;2023-05-07T04:19:02;12.30;99.90
38359;DHT22;42072;48.044;14.416;2023-05-07T04:21:29;12.30;99.90
38359;DHT22;42072;48.044;14.416;2023-05-07T04:23:56;12.40;99.90
38359;DHT22;42072;48.044;14.416;2023-05-07T04:26:24;12.50;99.90
38359;DHT22;42072;48.044;14.416;2023-05-07T04:28:51;12.60;99.90
38359;DHT22;42072;48.044;14.416;2023-05-07T04:31:18;12.70;96.40
38359;DHT22;42072;48.044;14.416;2023-05-07T04:33:45;12.80;63.90
38359;DHT22;42072;48.044;14.416;2023-05-07T04:36:12;12.90;13.00
38359;DHT22;42072;48.044;14.416;2023-05-07T04:38:40;13.00;1.00
38359;DHT22;42072;48.044;14.416;2023-05-07T04:41:09;13.00;1.00
38359;DHT22;42072;48.044;14.416;2023-05-07T04:43:36;13.00;1.00
38359;DHT22;42072;48.044;14.416;2023-05-07T04:46:03;13.10;1.00
38359;DHT22;42072;48.044;14.416;2023-05-07T04:48:30;13.10;1.00
38359;DHT22;42072;48.044;14.416;2023-05-07T04:50:58;13.00;1.00
38359;DHT22;42072;48.044;14.416;2023-05-07T04:53:25;13.10;1.00
38359;DHT22;42072;48.044;14.416;2023-05-07T04:55:56;13.20;1.00
38359;DHT22;42072;48.044;14.416;2023-05-07T04:58:24;13.40;1.00
38359;DHT22;42072;48.044;14.416;2023-05-07T05:00:51;13.30;1.00
38359;DHT22;42072;48.044;14.416;2023-05-07T05:03:18;13.40;1.00
38359;DHT22;42072;48.044;14.416;2023-05-07T05:05:45;13.50;99.90
38359;DHT22;42072;48.044;14.416;2023-05-07T05:08:13;13.70;99.90
38359;DHT22;42072;48.044;14.416;2023-05-07T05:10:40;13.70;99.90
38359;DHT22;42072;48.044;14.416;2023-05-07T05:13:08;13.90;99.90
38359;DHT22;42072;48.044;14.416;2023-05-07T05:15:36;14.10;99.90
38359;DHT22;42072;48.044;14.416;2023-05-07T05:18:03;14.20;99.90
38359;DHT22;42072;48.044;14.416;2023-05-07T05:20:30;14.30;99.90
38359;DHT22;42072;48.044;14.416;2023-05-07T05:22:57;14.60;99.90
38359;DHT22;42072;48.044;14.416;2023-05-07T05:25:24;15.00;99.90
38359;DHT22;42072;48.044;14.416;2023-05-07T05:27:51;15.20;99.90
38359;DHT22;42072;48.044;14.416;2023-05-07T05:30:19;15.40;99.90
38359;DHT22;42072;48.044;14.416;2023-05-07T05:32:48;15.70;99.90
38359;DHT22;42072;48.044;14.416;2023-05-07T05:35:16;16.10;96.00
38359;DHT22;42072;48.044;14.416;2023-05-07T05:37:43;15.90;65.30
38359;DHT22;42072;48.044;14.416;2023-05-07T05:40:11;16.40;57.20
38359;DHT22;42072;48.044;14.416;2023-05-07T05:42:38;16.70;10.00
38359;DHT22;42072;48.044;14.416;2023-05-07T05:45:06;17.20;1.00
38359;DHT22;42072;48.044;14.416;2023-05-07T05:47:33;17.80;1.00
38359;DHT22;42072;48.044;14.416;2023-05-07T05:50:01;18.60;1.00
38359;DHT22;42072;48.044;14.416;2023-05-07T05:52:28;18.60;1.00
38359;DHT22;42072;48.044;14.416;2023-05-07T05:54:55;18.50;1.00
38359;DHT22;42072;48.044;14.416;2023-05-07T05:57:22;18.50;1.00
38359;DHT22;42072;48.044;14.416;2023-05-07T05:59:52;18.60;1.00
38359;DHT22;42072;48.044;14.416;2023-05-07T06:02:19;18.60;1.00
38359;DHT22;42072;48.044;14.416;2023-05-07T06:04:46;18.70;1.00
38359;DHT22;42072;48.044;14.416;2023-05-07T06:07:13;18.90;1.00
38359;DHT22;42072;48.044;14.416;2023-05-07T06:09:41;18.60;1.00
38359;DHT22;42072;48.044;14.416;2023-05-07T06:12:08;18.10;1.00
38359;DHT22;42072;48.044;14.416;2023-05-07T06:14:35;17.10;1.00
38359;DHT22;42072;48.044;14.416;2023-05-07T06:17:02;16.80;1.00
38359;DHT22;42072;48.044;14.416;2023-05-07T06:19:29;16.50;1.00
38359;DHT22;42072;48.044;14.416;2023-05-07T06:21:58;16.30;1.00
38359;DHT22;42072;48.044;14.416;2023-05-07T06:24:25;15.90;1.00
38359;DHT22;42072;48.044;14.416;2023-05-07T06:26:52;15.90;1.00
38359;DHT22;42072;48.044;14.416;2023-05-07T06:29:19;15.70;1.00
38359;DHT22;42072;48.044;14.416;2023-05-07T06:31:46;15.70;1.00
38359;DHT22;42072;48.044;14.416;2023-05-07T06:34:14;15.90;1.00
38359;DHT22;42072;48.044;14.416;2023-05-07T06:36:41;16.20;1.00
38359;DHT22;42072;48.044;14.416;2023-05-07T06:39:08;16.10;1.00
38359;DHT22;42072;48.044;14.416;2023-05-07T06:41:36;16.10;1.00
38359;DHT22;42072;48.044;14.416;2023-05-07T06:44:03;16.10;1.00
38359;DHT22;42072;48.044;14.416;2023-05-07T06:46:31;16.20;1.00
38359;DHT22;42072;48.044;14.416;2023-05-07T06:48:59;16.20;1.00
38359;DHT22;42072;48.044;14.416;2023-05-07T06:51:26;16.50;1.00
38359;DHT22;42072;48.044;14.416;2023-05-07T06:53:53;16.80;1.00
38359;DHT22;42072;48.044;14.416;2023-05-07T06:56:20;16.60;1.00
38359;DHT22;42072;48.044;14.416;2023-05-07T06:58:48;16.90;1.00
38359;DHT22;42072;48.044;14.416;2023-05-07T07:01:15;17.10;1.00
38359;DHT22;42072;48.044;14.416;2023-05-07T07:03:42;17.20;1.00
38359;DHT22;42072;48.044;14.416;2023-05-07T07:06:09;17.10;1.00
38359;DHT22;42072;48.044;14.416;2023-05-07T07:08:36;17.10;1.00
38359;DHT22;42072;48.044;14.416;2023-05-07T07:11:06;16.80;1.00
38359;DHT22;42072;48.044;14.416;2023-05-07T07:13:33;16.80;1.00
38359;DHT22;42072;48.044;14.416;2023-05-07T07:16:00;17.10;1.00
38359;DHT22;42072;48.044;14.416;2023-05-07T07:18:27;17.00;1.00
38359;DHT22;42072;48.044;14.416;2023-05-07T07:20:54;16.90;1.00
38359;DHT22;42072;48.044;14.416;2023-05-07T07:23:22;17.20;1.00
38359;DHT22;42072;48.044;14.416;2023-05-07T07:25:49;17.20;1.00
38359;DHT22;42072;48.044;14.416;2023-05-07T07:28:16;17.20;1.00
38359;DHT22;42072;48.044;14.416;2023-05-07T07:30:43;17.40;1.00
38359;DHT22;42072;48.044;14.416;2023-05-07T07:33:11;17.40;1.00
38359;DHT22;42072;48.044;14.416;2023-05-07T07:35:38;17.50;1.00
38359;DHT22;42072;48.044;14.416;2023-05-07T07:38:05;17.50;1.00
38359;DHT22;42072;48.044;14.416;2023-05-07T07:40:34;17.60;1.00
38359;DHT22;42072;48.044;14.416;2023-05-07T07:43:02;17.30;1.00
38359;DHT22;42072;48.044;14.416;2023-05-07T07:45:29;17.50;1.00
38359;DHT22;42072;48.044;14.416;2023-05-07T07:47:56;17.40;1.00
38359;DHT22;42072;48.044;14.416;2023-05-07T07:50:23;17.50;1.00
38359;DHT22;42072;48.044;14.416;2023-05-07T07:53:10;17.60;1.00
38359;DHT22;42072;48.044;14.416;2023-05-07T07:55:40;17.80;1.00
38359;DHT22;42072;48.044;14.416;2023-05-07T07:58:07;18.00;1.00
38359;DHT22;42072;48.044;14.416;2023-05-07T08:00:34;18.20;1.00
38359;DHT22;42072;48.044;14.416;2023-05-07T08:03:02;18.40;1.00
38359;DHT22;42072;48.044;14.416;2023-05-07T08:05:30;18.40;1.00
38359;DHT22;42072;48.044;14.416;2023-05-07T08:07:57;18.20;1.00
38359;DHT22;42072;48.044;14.416;2023-05-07T08:10:25;18.30;1.00
38359;DHT22;42072;48.044;14.416;2023-05-07T08:12:52;18.50;1.00
38359;DHT22;42072;48.044;14.416;2023-05-07T08:15:19;18.60;1.00
38359;DHT22;42072;48.044;14.416;2023-05-07T08:17:47;18.80;1.00
38359;DHT22;42072;48.044;14.416;2023-05-07T08:20:14;19.00;1.00
38359;DHT22;42072;48.044;14.416;2023-05-07T08:22:41;18.70;1.00
38359;DHT22;42072;48.044;14.416;2023-05-07T08:25:09;18.60;1.00
38359;DHT22;42072;48.044;14.416;2023-05-07T08:27:36;18.70;1.00
38359;DHT22;42072;48.044;14.416;2023-05-07T08:30:04;18.60;1.00
38359;DHT22;42072;48.044;14.416;2023-05-07T08:32:31;18.80;1.00
38359;DHT22;42072;48.044;14.416;2023-05-07T08:34:59;19.00;1.00
38359;DHT22;42072;48.044;14.416;2023-05-07T08:37:26;19.20;99.90
38359;DHT22;42072;48.044;14.416;2023-05-07T08:39:53;18.80;99.90
38359;DHT22;42072;48.044;14.416;2023-05-07T08:42:23;19.20;1.00
38359;DHT22;42072;48.044;14.416;2023-05-07T08:44:52;18.90;99.90
38359;DHT22;42072;48.044;14.416;2023-05-07T08:47:29;18.90;99.90
38359;DHT22;42072;48.044;14.416;2023-05-07T08:49:56;18.80;99.90
38359;DHT22;42072;48.044;14.416;2023-05-07T08:52:25;18.90;1.00
38359;DHT22;42072;48.044;14.416;2023-05-07T08:54:53;18.90;99.90
38359;DHT22;42072;48.044;14.416;2023-05-07T08:57:20;19.20;99.90
38359;DHT22;42072;48.044;14.416;2023-05-07T08:59:48;19.00;99.90
38359;DHT22;42072;48.044;14.416;2023-05-07T09:02:15;18.90;99.90
38359;DHT22;42072;48.044;14.416;2023-05-07T09:04:43;19.30;99.90
38359;DHT22;42072;48.044;14.416;2023-05-07T09:07:10;19.20;99.90
38359;DHT22;42072;48.044;14.416;2023-05-07T09:09:37;19.50;99.90
38359;DHT22;42072;48.044;14.416;2023-05-07T09:12:05;19.40;99.90
38359;DHT22;42072;48.044;14.416;2023-05-07T09:14:32;19.20;99.90
38359;DHT22;42072;48.044;14.416;2023-05-07T09:16:59;19.30;99.90
38359;DHT22;42072;48.044;14.416;2023-05-07T09:19:27;19.40;99.90
38359;DHT22;42072;48.044;14.416;2023-05-07T09:22:02;19.50;99.90
38359;DHT22;42072;48.044;14.416;2023-05-07T09:24:31;19.50;99.90
38359;DHT22;42072;48.044;14.416;2023-05-07T09:27:02;19.50;99.90
38359;DHT22;42072;48.044;14.416;2023-05-07T09:29:29;19.70;99.90
38359;DHT22;42072;48.044;14.416;2023-05-07T09:31:59;19.80;99.90
38359;DHT22;42072;48.044;14.416;2023-05-07T09:34:26;19.80;99.90
38359;DHT22;42072;48.044;14.416;2023-05-07T09:36:54;20.00;99.90
38359;DHT22;42072;48.044;14.416;2023-05-07T09:39:21;19.70;99.90
38359;DHT22;42072;48.044;14.416;2023-05-07T09:41:49;19.60;99.90
38359;DHT22;42072;48.044;14.416;2023-05-07T09:44:17;20.00;99.90
38359;DHT22;42072;48.044;14.416;2023-05-07T09:46:46;19.90;99.90
38359;DHT22;42072;48.044;14.416;2023-05-07T09:49:22;20.00;99.90
38359;DHT22;42072;48.044;14.416;2023-05-07T09:51:51;20.10;99.90
38359;DHT22;42072;48.044;14.416;2023-05-07T09:54:19;20.30;99.90
38359;DHT22;42072;48.044;14.416;2023-05-07T09:56:48;20.40;99.90
38359;DHT22;42072;48.044;14.416;2023-05-07T09:59:16;20.50;99.90
38359;DHT22;42072;48.044;14.416;2023-05-07T10:01:45;20.50;99.90
38359;DHT22;42072;48.044;14.416;2023-05-07T10:04:12;20.60;99.90
38359;DHT22;42072;48.044;14.416;2023-05-07T10:06:41;20.80;99.90
38359;DHT22;42072;48.044;14.416;2023-05-07T10:09:10;20.60;99.90
38359;DHT22;42072;48.044;14.416;2023-05-07T10:11:38;20.70;99.90
38359;DHT22;42072;48.044;14.416;2023-05-07T10:14:06;20.90;99.90
38359;DHT22;42072;48.044;14.416;2023-05-07T10:16:35;20.90;99.90
38359;DHT22;42072;48.044;14.416;2023-05-07T10:19:04;20.90;99.90
38359;DHT22;42072;48.044;14.416;2023-05-07T10:21:36;20.80;99.90
38359;DHT22;42072;48.044;14.416;2023-05-07T10:24:09;20.60;99.90
38359;DHT22;42072;48.044;14.416;2023-05-07T10:26:47;20.40;99.90
38359;DHT22;42072;48.044;14.416;2023-05-07T10:29:22;20.60;99.90
38359;DHT22;42072;48.044;14.416;2023-05-07T10:34:28;20.80;99.90
38359;DHT22;42072;48.044;14.416;2023-05-07T10:36:57;21.10;99.90
38359;DHT22;42072;48.044;14.416;2023-05-07T10:39:24;21.20;99.90
38359;DHT22;42072;48.044;14.416;2023-05-07T10:41:51;21.40;99.90
38359;DHT22;42072;48.044;14.416;2023-05-07T10:44:29;21.40;99.90
38359;DHT22;42072;48.044;14.416;2023-05-07T10:47:12;21.60;99.90
38359;DHT22;42072;48.044;14.416;2023-05-07T10:52:23;21.50;99.90
38359;DHT22;42072;48.044;14.416;2023-05-07T10:57:52;21.50;99.90
38359;DHT22;42072;48.044;14.416;2023-05-07T11:03:05;21.50;99.90
38359;DHT22;42072;48.044;14.416;2023-05-07T11:05:34;21.80;99.90
38359;DHT22;42072;48.044;14.416;2023-05-07T11:08:05;21.80;99.90
38359;DHT22;42072;48.044;14.416;2023-05-07T11:10:49;22.20;99.90
38359;DHT22;42072;48.044;14.416;2023-05-07T11:13:17;22.10;99.90
38359;DHT22;42072;48.044;14.416;2023-05-07T11:15:47;22.00;99.90
38359;DHT22;42072;48.044;14.416;2023-05-07T11:18:17;22.20;99.90
38359;DHT22;42072;48.044;14.416;2023-05-07T11:20:54;22.10;99.90
38359;DHT22;42072;48.044;14.416;2023-05-07T11:26:04;22.10;99.90
38359;DHT22;42072;48.044;14.416;2023-05-07T11:28:37;21.90;99.90
38359;DHT22;42072;48.044;14.416;2023-05-07T11:31:05;21.80;99.90
38359;DHT22;42072;48.044;14.416;2023-05-07T11:33:35;22.10;99.90
38359;DHT22;42072;48.044;14.416;2023-05-07T11:36:03;22.10;99.90
38359;DHT22;42072;48.044;14.416;2023-05-07T11:38:35;22.30;99.90
38359;DHT22;42072;48.044;14.416;2023-05-07T11:41:03;22.50;99.90
38359;DHT22;42072;48.044;14.416;2023-05-07T11:43:32;22.60;99.90
38359;DHT22;42072;48.044;14.416;2023-05-07T11:46:11;22.70;99.90
38359;DHT22;42072;48.044;14.416;2023-05-07T11:48:39;22.70;99.90
38359;DHT22;42072;48.044;14.416;2023-05-07T11:51:07;22.60;99.90
38359;DHT22;42072;48.044;14.416;2023-05-07T11:53:41;22.40;99.90
38359;DHT22;42072;48.044;14.416;2023-05-07T11:56:16;22.70;99.90
38359;DHT22;42072;48.044;14.416;2023-05-07T11:58:45;22.70;99.90
38359;DHT22;42072;48.044;14.416;2023-05-07T12:01:13;22.80;99.90
38359;DHT22;42072;48.044;14.416;2023-05-07T12:03:43;22.70;99.90
38359;DHT22;42072;48.044;14.416;2023-05-07T12:06:14;22.30;99.90
38359;DHT22;42072;48.044;14.416;2023-05-07T12:08:44;22.20;99.90
38359;DHT22;42072;48.044;14.416;2023-05-07T12:11:22;22.40;99.90
38359;DHT22;42072;48.044;14.416;2023-05-07T12:13:50;22.70;99.90
38359;DHT22;42072;48.044;14.416;2023-05-07T12:16:19;22.70;99.90
38359;DHT22;42072;48.044;14.416;2023-05-07T12:18:47;23.00;99.90
38359;DHT22;42072;48.044;14.416;2023-05-07T12:21:14;23.20;99.90
38359;DHT22;42072;48.044;14.416;2023-05-07T12:23:45;23.50;99.90
38359;DHT22;42072;48.044;14.416;2023-05-07T12:26:12;23.60;99.90
38359;DHT22;42072;48.044;14.416;2023-05-07T12:28:39;23.40;99.90
38359;DHT22;42072;48.044;14.416;2023-05-07T12:31:07;22.90;99.90
38359;DHT22;42072;48.044;14.416;2023-05-07T12:33:35;22.60;99.90
38359;DHT22;42072;48.044;14.416;2023-05-07T12:36:05;22.80;99.90
38359;DHT22;42072;48.044;14.416;2023-05-07T12:38:40;23.00;99.90
38359;DHT22;42072;48.044;14.416;2023-05-07T12:41:09;23.00;99.90
38359;DHT22;42072;48.044;14.416;2023-05-07T12:43:36;22.70;99.90
38359;DHT22;42072;48.044;14.416;2023-05-07T12:46:07;22.70;99.90
38359;DHT22;42072;48.044;14.416;2023-05-07T12:48:38;22.90;99.90
38359;DHT22;42072;48.044;14.416;2023-05-07T12:51:10;23.40;99.90
38359;DHT22;42072;48.044;14.416;2023-05-07T12:53:42;23.20;99.90
38359;DHT22;42072;48.044;14.416;2023-05-07T12:56:10;22.90;99.90
38359;DHT22;42072;48.044;14.416;2023-05-07T12:58:37;22.70;99.90
38359;DHT22;42072;48.044;14.416;2023-05-07T13:01:06;22.70;99.90
38359;DHT22;42072;48.044;14.416;2023-05-07T13:03:35;23.20;99.90
38359;DHT22;42072;48.044;14.416;2023-05-07T13:06:08;23.00;99.90
38359;DHT22;42072;48.044;14.416;2023-05-07T13:08:41;22.70;99.90
38359;DHT22;42072;48.044;14.416;2023-05-07T13:11:11;23.00;99.90
38359;DHT22;42072;48.044;14.416;2023-05-07T13:13:40;23.00;99.90
38359;DHT22;42072;48.044;14.416;2023-05-07T13:16:09;22.60;99.90
38359;DHT22;42072;48.044;14.416;2023-05-07T13:18:38;22.80;99.90
38359;DHT22;42072;48.044;14.416;2023-05-07T13:21:06;23.40;99.90
38359;DHT22;42072;48.044;14.416;2023-05-07T13:23:34;23.30;99.90
38359;DHT22;42072;48.044;14.416;2023-05-07T13:26:01;23.40;99.90
38359;DHT22;42072;48.044;14.416;2023-05-07T13:28:40;23.50;99.90
38359;DHT22;42072;48.044;14.416;2023-05-07T13:31:09;23.20;99.90
38359;DHT22;42072;48.044;14.416;2023-05-07T13:33:36;23.60;99.90
38359;DHT22;42072;48.044;14.416;2023-05-07T13:36:04;23.80;99.90
38359;DHT22;42072;48.044;14.416;2023-05-07T13:38:32;23.60;99.90
38359;DHT22;42072;48.044;14.416;2023-05-07T13:40:59;23.40;99.90
38359;DHT22;42072;48.044;14.416;2023-05-07T13:43:26;23.30;99.90
38359;DHT22;42072;48.044;14.416;2023-05-07T13:45:53;23.30;99.90
38359;DHT22;42072;48.044;14.416;2023-05-07T13:48:21;23.40;99.90
38359;DHT22;42072;48.044;14.416;2023-05-07T13:50:48;23.40;99.90
38359;DHT22;42072;48.044;14.416;2023-05-07T13:53:15;23.00;99.90
38359;DHT22;42072;48.044;14.416;2023-05-07T13:55:47;23.10;99.90
38359;DHT22;42072;48.044;14.416;2023-05-07T13:58:14;23.00;99.90
38359;DHT22;42072;48.044;14.416;2023-05-07T14:00:41;22.50;99.90
38359;DHT22;42072;48.044;14.416;2023-05-07T14:03:08;22.70;99.90
38359;DHT22;42072;48.044;14.416;2023-05-07T14:05:35;23.10;99.90
38359;DHT22;42072;48.044;14.416;2023-05-07T14:08:02;23.30;99.90
38359;DHT22;42072;48.044;14.416;2023-05-07T14:10:31;23.30;99.90
38359;DHT22;42072;48.044;14.416;2023-05-07T14:13:01;23.20;99.90
38359;DHT22;42072;48.044;14.416;2023-05-07T14:15:28;23.20;99.90
38359;DHT22;42072;48.044;14.416;2023-05-07T14:17:55;23.10;99.90
38359;DHT22;42072;48.044;14.416;2023-05-07T14:20:24;22.80;99.90
38359;DHT22;42072;48.044;14.416;2023-05-07T14:22:52;22.70;99.90
38359;DHT22;42072;48.044;14.416;2023-05-07T14:25:19;22.60;99.90
38359;DHT22;42072;48.044;14.416;2023-05-07T14:27:46;22.80;99.90
38359;DHT22;42072;48.044;14.416;2023-05-07T14:30:13;22.40;99.90
38359;DHT22;42072;48.044;14.416;2023-05-07T14:32:40;22.50;99.90
38359;DHT22;42072;48.044;14.416;2023-05-07T14:35:08;22.20;99.90
38359;DHT22;42072;48.044;14.416;2023-05-07T14:37:35;22.10;99.90
38359;DHT22;42072;48.044;14.416;2023-05-07T14:40:03;22.00;99.90
38359;DHT22;42072;48.044;14.416;2023-05-07T14:42:30;22.10;99.90
38359;DHT22;42072;48.044;14.416;2023-05-07T14:44:57;22.10;99.90
38359;DHT22;42072;48.044;14.416;2023-05-07T14:47:24;22.10;99.90
38359;DHT22;42072;48.044;14.416;2023-05-07T14:49:52;21.70;99.90
38359;DHT22;42072;48.044;14.416;2023-05-07T14:52:20;21.70;99.90
38359;DHT22;42072;48.044;14.416;2023-05-07T14:54:47;22.00;99.90
38359;DHT22;42072;48.044;14.416;2023-05-07T14:57:14;22.10;99.90
38359;DHT22;42072;48.044;14.416;2023-05-07T14:59:43;22.30;99.90
38359;DHT22;42072;48.044;14.416;2023-05-07T15:02:11;21.90;99.90
38359;DHT22;42072;48.044;14.416;2023-05-07T15:04:39;21.80;99.90
38359;DHT22;42072;48.044;14.416;2023-05-07T15:07:13;21.30;99.90
38359;DHT22;42072;48.044;14.416;2023-05-07T15:09:44;21.50;99.90
38359;DHT22;42072;48.044;14.416;2023-05-07T15:12:12;21.50;99.90
38359;DHT22;42072;48.044;14.416;2023-05-07T15:14:40;21.60;99.90
38359;DHT22;42072;48.044;14.416;2023-05-07T15:17:08;21.50;99.90
38359;DHT22;42072;48.044;14.416;2023-05-07T15:19:35;21.10;99.90
38359;DHT22;42072;48.044;14.416;2023-05-07T15:22:02;20.90;99.90
38359;DHT22;42072;48.044;14.416;2023-05-07T15:24:30;21.00;99.90
38359;DHT22;42072;48.044;14.416;2023-05-07T15:26:57;20.90;99.90
38359;DHT22;42072;48.044;14.416;2023-05-07T15:29:29;20.90;99.90
38359;DHT22;42072;48.044;14.416;2023-05-07T15:31:57;20.80;99.90
38359;DHT22;42072;48.044;14.416;2023-05-07T15:34:24;20.60;99.90
38359;DHT22;42072;48.044;14.416;2023-05-07T15:36:51;20.50;99.90
38359;DHT22;42072;48.044;14.416;2023-05-07T15:39:18;20.50;99.90